Time;durP1;ratioP1;P1;durP2;ratioP2;P2;SDS_P1;SDS_P2;PMS_P1;PMS_P2;Temp;Humidity;BMP_temperature;BMP_pressure;BME280_temperature;BME280_humidity;BME280_pressure;Samples;Min_cycle;Max_cycle;Signal;HPM_P1;HPM_P2
2021/01/08 00:01:42;;;;;;;20.50;10.77;;;;;;;;;;5072735;28;20457;-78
2021/01/08 00:04:08;;;;;;;18.47;10.73;;;;;;;;;;5072694;28;20486;-77
2021/01/08 00:06:35;;;;;;;20.27;9.90;;;;;;;;;;5078552;28;20425;-79
2021/01/08 00:09:01;;;;;;;16.73;9.97;;;;;;;;;;5078037;28;20441;-78
2021/01/08 00:11:27;;;;;;;15.60;10.93;;;;;;;;;;5082255;28;20560;-76
2021/01/08 00:13:53;;;;;;;18.90;9.83;;;;;;;;;;5082843;28;20406;-77
2021/01/08 00:16:20;;;;;;;21.50;11.67;;;;;;;;;;5079766;28;20405;-77
2021/01/08 00:18:46;;;;;;;15.80;8.83;;;;;;;;;;5076785;28;20421;-80
2021/01/08 00:21:13;;;;;;;15.83;9.80;;;;;;;;;;5076271;28;20417;-77
2021/01/08 00:23:39;;;;;;;20.10;10.63;;;;;;;;;;5075837;28;20437;-79
2021/01/08 00:26:05;;;;;;;14.80;10.03;;;;;;;;;;5077728;28;20415;-77
2021/01/08 00:28:31;;;;;;;19.73;10.70;;;;;;;;;;5075403;28;20547;-78
2021/01/08 00:30:57;;;;;;;16.60;10.50;;;;;;;;;;5074962;28;20421;-77
2021/01/08 00:33:23;;;;;;;20.60;12.10;;;;;;;;;;5074157;28;20811;-77
2021/01/08 00:35:49;;;;;;;19.80;10.13;;;;;;;;;;5076767;28;20407;-77
2021/01/08 00:38:15;;;;;;;14.37;9.40;;;;;;;;;;5064765;22;20495;-65
2021/01/08 00:40:41;;;;;;;22.43;10.97;;;;;;;;;;5015397;28;20496;-65
2021/01/08 00:43:07;;;;;;;20.47;10.57;;;;;;;;;;5024225;28;20499;-65
2021/01/08 00:45:33;;;;;;;16.90;9.40;;;;;;;;;;5042717;28;20428;-65
2021/01/08 00:47:59;;;;;;;17.33;9.70;;;;;;;;;;5036757;28;21026;-65
2021/01/08 00:50:25;;;;;;;18.93;10.40;;;;;;;;;;5054631;28;20410;-63
2021/01/08 00:52:51;;;;;;;16.80;9.67;;;;;;;;;;5052613;28;20437;-63
2021/01/08 00:55:17;;;;;;;16.90;9.60;;;;;;;;;;5052766;28;20412;-63
2021/01/08 00:57:43;;;;;;;18.10;10.83;;;;;;;;;;5052400;28;20783;-65
2021/01/08 01:00:09;;;;;;;13.23;8.70;;;;;;;;;;5055027;28;20399;-64
2021/01/08 01:02:36;;;;;;;15.30;8.80;;;;;;;;;;5053900;28;20399;-68
2021/01/08 01:05:02;;;;;;;17.90;9.03;;;;;;;;;;5053442;28;20477;-65
2021/01/08 01:07:28;;;;;;;20.73;9.93;;;;;;;;;;5054633;28;20432;-63
2021/01/08 01:09:54;;;;;;;18.47;10.03;;;;;;;;;;5051830;28;20462;-64
2021/01/08 01:12:20;;;;;;;16.50;9.23;;;;;;;;;;5054921;28;20926;-64
2021/01/08 01:14:46;;;;;;;18.40;10.20;;;;;;;;;;5055721;28;20433;-65
2021/01/08 01:17:12;;;;;;;18.07;10.13;;;;;;;;;;5057250;28;20993;-64
2021/01/08 01:19:38;;;;;;;17.63;9.70;;;;;;;;;;5055289;28;20484;-64
2021/01/08 01:22:04;;;;;;;19.47;9.70;;;;;;;;;;5057343;28;20400;-64
2021/01/08 01:24:30;;;;;;;14.77;8.97;;;;;;;;;;5055576;28;20433;-64
2021/01/08 01:27:00;;;;;;;16.10;8.20;;;;;;;;;;5057072;28;20435;-63
2021/01/08 01:29:26;;;;;;;20.60;10.20;;;;;;;;;;5055707;28;20480;-63
2021/01/08 01:31:52;;;;;;;16.53;9.47;;;;;;;;;;5058064;28;20415;-63
2021/01/08 01:34:19;;;;;;;20.17;10.37;;;;;;;;;;5055354;28;20542;-64
2021/01/08 01:36:46;;;;;;;19.90;10.73;;;;;;;;;;5057738;28;20489;-64
2021/01/08 01:39:12;;;;;;;13.87;7.70;;;;;;;;;;5044493;28;20439;-64
2021/01/08 01:41:39;;;;;;;19.73;9.03;;;;;;;;;;5037795;28;20421;-65
2021/01/08 01:44:05;;;;;;;17.27;7.90;;;;;;;;;;5046535;28;20436;-65
2021/01/08 01:46:31;;;;;;;15.53;9.90;;;;;;;;;;5048036;28;20468;-64
2021/01/08 01:48:57;;;;;;;16.07;9.87;;;;;;;;;;5046344;28;20465;-64
2021/01/08 01:51:23;;;;;;;20.93;9.23;;;;;;;;;;5056266;28;20431;-65
2021/01/08 01:53:49;;;;;;;18.37;8.90;;;;;;;;;;5048040;28;20433;-64
2021/01/08 01:56:15;;;;;;;18.97;9.97;;;;;;;;;;5037113;28;20494;-64
2021/01/08 01:58:41;;;;;;;17.37;9.20;;;;;;;;;;5042139;28;20457;-64
2021/01/08 02:01:10;;;;;;;16.37;8.70;;;;;;;;;;5052731;28;20431;-63
2021/01/08 02:03:46;;;;;;;19.53;10.10;;;;;;;;;;5035685;28;20434;-64
2021/01/08 02:06:13;;;;;;;17.23;9.20;;;;;;;;;;5036726;28;20400;-64
2021/01/08 02:08:42;;;;;;;20.63;9.23;;;;;;;;;;5041288;28;20524;-64
2021/01/08 02:11:11;;;;;;;17.23;9.80;;;;;;;;;;5056628;28;20458;-64
2021/01/08 02:13:47;;;;;;;18.13;9.57;;;;;;;;;;5054851;28;20445;-65
2021/01/08 02:16:13;;;;;;;15.13;8.73;;;;;;;;;;5056788;28;20391;-64
2021/01/08 02:18:40;;;;;;;16.63;8.40;;;;;;;;;;5054726;28;20455;-64
2021/01/08 02:21:08;;;;;;;21.80;9.30;;;;;;;;;;5057067;28;20414;-64
2021/01/08 02:23:40;;;;;;;22.00;9.93;;;;;;;;;;5053674;28;20433;-63
2021/01/08 02:26:06;;;;;;;13.70;8.67;;;;;;;;;;5056990;28;20414;-64
2021/01/08 02:28:32;;;;;;;16.03;9.30;;;;;;;;;;5054952;28;20457;-64
2021/01/08 02:30:58;;;;;;;13.90;8.37;;;;;;;;;;5053903;28;20737;-65
2021/01/08 02:33:24;;;;;;;11.63;8.30;;;;;;;;;;5038057;28;20432;-64
2021/01/08 02:35:51;;;;;;;23.70;10.53;;;;;;;;;;5054942;28;20438;-64
2021/01/08 02:38:19;;;;;;;14.13;7.70;;;;;;;;;;5054564;28;20452;-64
2021/01/08 02:40:47;;;;;;;14.23;8.47;;;;;;;;;;5056534;28;20406;-64
2021/01/08 02:43:15;;;;;;;15.33;8.10;;;;;;;;;;5056931;28;20792;-64
2021/01/08 02:45:41;;;;;;;14.87;8.90;;;;;;;;;;5036238;28;20481;-64
2021/01/08 02:48:07;;;;;;;13.57;9.10;;;;;;;;;;5037757;28;20442;-64
2021/01/08 02:50:33;;;;;;;16.67;8.53;;;;;;;;;;5040090;28;20492;-65
2021/01/08 02:53:03;;;;;;;13.60;8.60;;;;;;;;;;5036587;28;20462;-64
2021/01/08 02:55:30;;;;;;;16.93;9.40;;;;;;;;;;5049435;28;20440;-64
2021/01/08 02:57:57;;;;;;;13.53;8.07;;;;;;;;;;5056072;28;20957;-64
2021/01/08 03:00:24;;;;;;;15.93;7.77;;;;;;;;;;5043007;28;20435;-64
2021/01/08 03:02:50;;;;;;;15.03;8.57;;;;;;;;;;5035880;28;20967;-64
2021/01/08 03:05:16;;;;;;;18.60;11.03;;;;;;;;;;5046787;28;20422;-64
2021/01/08 03:07:42;;;;;;;16.53;9.17;;;;;;;;;;5056476;28;20458;-64
2021/01/08 03:10:08;;;;;;;18.37;9.10;;;;;;;;;;5043886;28;20458;-64
2021/01/08 03:12:36;;;;;;;17.33;9.30;;;;;;;;;;5035451;28;20412;-64
2021/01/08 03:15:05;;;;;;;19.73;9.97;;;;;;;;;;5044561;28;20786;-65
2021/01/08 03:17:31;;;;;;;15.60;9.10;;;;;;;;;;5035710;28;20450;-64
2021/01/08 03:19:57;;;;;;;16.90;10.03;;;;;;;;;;5040181;28;20503;-63
2021/01/08 03:22:23;;;;;;;19.43;9.27;;;;;;;;;;5052907;28;20442;-64
2021/01/08 03:24:49;;;;;;;20.60;10.03;;;;;;;;;;5050653;28;20430;-64
2021/01/08 03:27:15;;;;;;;23.10;10.93;;;;;;;;;;5052803;28;20431;-64
2021/01/08 03:29:41;;;;;;;17.13;9.77;;;;;;;;;;5050572;28;20962;-64
2021/01/08 03:32:07;;;;;;;16.77;9.00;;;;;;;;;;5052781;28;20453;-64
2021/01/08 03:34:33;;;;;;;17.27;9.47;;;;;;;;;;5054434;28;20443;-64
2021/01/08 03:36:58;;;;;;;15.30;9.40;;;;;;;;;;5056408;28;20470;-64
2021/01/08 03:39:24;;;;;;;18.97;9.23;;;;;;;;;;5054005;28;20937;-64
2021/01/08 03:41:50;;;;;;;18.00;10.03;;;;;;;;;;5056108;28;20412;-64
2021/01/08 03:44:16;;;;;;;13.97;8.60;;;;;;;;;;5054033;28;20747;-65
2021/01/08 03:46:42;;;;;;;15.53;10.13;;;;;;;;;;5056290;28;20437;-65
2021/01/08 03:49:08;;;;;;;16.57;9.90;;;;;;;;;;5049080;28;20479;-67
2021/01/08 03:51:34;;;;;;;16.13;8.87;;;;;;;;;;5035434;28;20430;-64
2021/01/08 03:54:00;;;;;;;15.97;10.30;;;;;;;;;;5036242;28;20419;-64
2021/01/08 03:56:26;;;;;;;15.17;9.80;;;;;;;;;;5053906;28;20797;-64
2021/01/08 03:58:52;;;;;;;19.93;8.37;;;;;;;;;;5055801;28;20419;-64
2021/01/08 04:01:18;;;;;;;16.50;9.63;;;;;;;;;;5052715;28;20480;-64
2021/01/08 04:03:44;;;;;;;16.70;9.10;;;;;;;;;;5056285;28;20439;-64
2021/01/08 04:06:10;;;;;;;13.47;9.60;;;;;;;;;;5037804;28;20467;-64
2021/01/08 04:08:36;;;;;;;18.50;9.97;;;;;;;;;;5035806;28;20452;-65
2021/01/08 04:11:03;;;;;;;16.23;9.10;;;;;;;;;;5034762;28;20508;-64
2021/01/08 04:13:29;;;;;;;20.93;10.47;;;;;;;;;;5035903;28;20404;-65
2021/01/08 04:15:55;;;;;;;21.77;10.13;;;;;;;;;;5048169;28;20426;-64
2021/01/08 04:18:21;;;;;;;20.40;9.93;;;;;;;;;;5055697;28;20416;-65
2021/01/08 04:20:47;;;;;;;19.00;10.70;;;;;;;;;;5041812;28;20455;-63
2021/01/08 04:23:13;;;;;;;16.43;10.10;;;;;;;;;;5045511;28;20424;-64
2021/01/08 04:25:39;;;;;;;16.23;10.17;;;;;;;;;;5044434;28;20431;-64
2021/01/08 04:28:05;;;;;;;19.83;9.10;;;;;;;;;;5035359;28;20436;-64
2021/01/08 04:30:31;;;;;;;12.43;8.97;;;;;;;;;;5034326;28;20477;-64
2021/01/08 04:32:57;;;;;;;16.27;9.70;;;;;;;;;;5032305;28;20466;-64
2021/01/08 04:35:23;;;;;;;15.20;9.00;;;;;;;;;;5034229;28;20440;-64
2021/01/08 04:37:49;;;;;;;19.10;9.33;;;;;;;;;;5033986;28;20460;-64
2021/01/08 04:40:15;;;;;;;17.67;8.97;;;;;;;;;;5033986;28;20922;-64
2021/01/08 04:42:41;;;;;;;17.60;10.00;;;;;;;;;;5045585;28;20434;-64
2021/01/08 04:45:07;;;;;;;18.40;9.60;;;;;;;;;;5053699;28;20491;-64
2021/01/08 04:47:34;;;;;;;21.80;10.17;;;;;;;;;;5043239;28;20456;-64
2021/01/08 04:50:04;;;;;;;23.17;11.10;;;;;;;;;;5033415;28;20451;-65
2021/01/08 04:52:31;;;;;;;18.10;9.27;;;;;;;;;;5031368;28;20968;-64
2021/01/08 04:54:57;;;;;;;17.50;10.33;;;;;;;;;;5035151;28;20741;-64
2021/01/08 04:57:24;;;;;;;18.10;10.13;;;;;;;;;;5040285;28;20877;-63
2021/01/08 04:59:50;;;;;;;17.03;8.83;;;;;;;;;;5054790;28;20586;-64
2021/01/08 05:02:16;;;;;;;17.87;9.70;;;;;;;;;;5046161;28;20437;-64
2021/01/08 05:04:43;;;;;;;20.13;10.90;;;;;;;;;;5034920;28;20536;-64
2021/01/08 05:07:09;;;;;;;16.57;10.30;;;;;;;;;;5038809;28;20451;-64
2021/01/08 05:09:35;;;;;;;16.40;10.17;;;;;;;;;;5054421;28;20452;-63
2021/01/08 05:12:01;;;;;;;14.10;9.57;;;;;;;;;;5052414;28;20916;-63
2021/01/08 05:14:27;;;;;;;22.77;11.17;;;;;;;;;;5054449;28;20405;-63
2021/01/08 05:16:56;;;;;;;15.80;9.37;;;;;;;;;;5053123;28;20447;-63
2021/01/08 05:19:25;;;;;;;23.23;10.90;;;;;;;;;;5054555;28;20414;-63
2021/01/08 05:21:53;;;;;;;18.83;9.77;;;;;;;;;;5049960;28;20489;-63
2021/01/08 05:24:21;;;;;;;17.60;9.77;;;;;;;;;;5034625;28;20431;-63
2021/01/08 05:26:47;;;;;;;21.33;10.37;;;;;;;;;;5033057;28;20412;-65
2021/01/08 05:29:13;;;;;;;22.37;10.63;;;;;;;;;;5034324;28;20456;-63
2021/01/08 05:31:40;;;;;;;20.83;9.63;;;;;;;;;;5033482;28;20407;-66
2021/01/08 05:34:06;;;;;;;15.33;10.47;;;;;;;;;;5034124;28;20419;-63
2021/01/08 05:36:32;;;;;;;22.80;10.00;;;;;;;;;;5033236;28;20466;-63
2021/01/08 05:38:59;;;;;;;21.50;11.07;;;;;;;;;;5032886;28;20543;-63
2021/01/08 05:41:26;;;;;;;22.73;12.03;;;;;;;;;;5033925;28;20409;-63
2021/01/08 05:43:52;;;;;;;18.33;10.83;;;;;;;;;;5033151;28;20820;-63
2021/01/08 05:46:29;;;;;;;18.97;9.53;;;;;;;;;;5034901;28;20416;-63
2021/01/08 05:48:59;;;;;;;22.80;9.87;;;;;;;;;;5032839;28;20494;-63
2021/01/08 05:51:26;;;;;;;19.07;11.50;;;;;;;;;;5036529;28;20404;-63
2021/01/08 05:53:53;;;;;;;18.33;9.53;;;;;;;;;;5034960;28;20430;-63
2021/01/08 05:56:20;;;;;;;17.67;9.23;;;;;;;;;;5037429;28;20458;-63
2021/01/08 05:58:46;;;;;;;21.87;12.03;;;;;;;;;;5052191;28;20455;-63
2021/01/08 06:01:13;;;;;;;18.90;8.63;;;;;;;;;;5056709;28;20412;-63
2021/01/08 06:03:39;;;;;;;19.47;10.77;;;;;;;;;;5055441;28;20518;-64
2021/01/08 06:06:05;;;;;;;19.57;11.10;;;;;;;;;;5056839;28;20399;-63
2021/01/08 06:08:37;;;;;;;17.33;9.00;;;;;;;;;;5054626;28;20857;-63
2021/01/08 06:11:07;;;;;;;18.70;10.87;;;;;;;;;;5055141;28;20445;-63
2021/01/08 06:13:33;;;;;;;21.03;10.33;;;;;;;;;;5055174;28;20424;-63
2021/01/08 06:16:01;;;;;;;20.93;10.23;;;;;;;;;;5054107;28;20486;-65
2021/01/08 06:18:27;;;;;;;19.53;10.73;;;;;;;;;;5051285;28;20489;-64
2021/01/08 06:20:54;;;;;;;15.77;8.57;;;;;;;;;;5053262;28;20412;-65
2021/01/08 06:23:33;;;;;;;21.53;10.20;;;;;;;;;;5051561;28;20775;-63
2021/01/08 06:25:59;;;;;;;24.03;10.17;;;;;;;;;;5053576;28;20806;-64
2021/01/08 06:28:33;;;;;;;20.70;12.03;;;;;;;;;;5051374;28;20875;-63
2021/01/08 06:31:02;;;;;;;18.60;10.27;;;;;;;;;;5053568;28;20384;-63
2021/01/08 06:33:32;;;;;;;18.77;8.47;;;;;;;;;;5051480;28;20438;-63
2021/01/08 06:36:10;;;;;;;17.90;9.43;;;;;;;;;;5053715;28;20712;-65
2021/01/08 06:38:39;;;;;;;16.53;9.47;;;;;;;;;;5041861;28;20824;-63
2021/01/08 06:41:07;;;;;;;13.67;8.17;;;;;;;;;;5036283;28;20465;-63
2021/01/08 06:43:34;;;;;;;14.17;7.63;;;;;;;;;;5047205;28;20938;-63
2021/01/08 06:46:02;;;;;;;18.97;9.20;;;;;;;;;;5056361;28;20498;-64
2021/01/08 06:48:29;;;;;;;17.53;8.30;;;;;;;;;;5053537;28;20979;-63
2021/01/08 06:51:02;;;;;;;17.10;8.70;;;;;;;;;;5055809;28;20404;-63
2021/01/08 06:53:29;;;;;;;13.10;7.17;;;;;;;;;;5046629;28;20916;-65
2021/01/08 06:55:55;;;;;;;13.83;9.00;;;;;;;;;;5035755;28;20498;-65
2021/01/08 06:58:22;;;;;;;13.43;7.40;;;;;;;;;;5045561;28;20467;-65
2021/01/08 07:00:50;;;;;;;13.70;8.33;;;;;;;;;;5055761;28;20394;-65
2021/01/08 07:03:17;;;;;;;18.00;8.63;;;;;;;;;;5054291;28;20431;-65
2021/01/08 07:05:45;;;;;;;20.27;8.90;;;;;;;;;;5055583;28;20879;-65
2021/01/08 07:08:12;;;;;;;14.27;7.47;;;;;;;;;;5055725;28;20445;-65
2021/01/08 07:10:38;;;;;;;16.53;7.70;;;;;;;;;;5059937;28;20408;-65
2021/01/08 07:13:04;;;;;;;13.83;6.90;;;;;;;;;;5057104;28;20430;-65
2021/01/08 07:15:31;;;;;;;12.10;6.10;;;;;;;;;;5059217;28;20463;-65
2021/01/08 07:17:59;;;;;;;10.30;6.60;;;;;;;;;;5051172;28;20495;-65
2021/01/08 07:20:26;;;;;;;11.40;7.20;;;;;;;;;;5059048;28;20409;-65
2021/01/08 07:22:59;;;;;;;12.60;6.70;;;;;;;;;;5057566;28;20462;-65
2021/01/08 07:25:25;;;;;;;11.40;6.20;;;;;;;;;;5060332;28;20748;-65
2021/01/08 07:27:52;;;;;;;12.20;7.10;;;;;;;;;;5058258;28;20794;-64
2021/01/08 07:30:18;;;;;;;13.00;6.27;;;;;;;;;;5061474;28;20445;-65
2021/01/08 07:32:46;;;;;;;13.03;6.73;;;;;;;;;;5058928;28;20526;-64
2021/01/08 07:35:23;;;;;;;14.00;6.03;;;;;;;;;;5059643;28;20409;-64
2021/01/08 07:38:08;;;;;;;16.23;6.90;;;;;;;;;;5057980;28;20467;-64
2021/01/08 07:40:34;;;;;;;12.63;5.93;;;;;;;;;;5059385;28;20411;-64
2021/01/08 07:43:10;;;;;;;10.57;6.17;;;;;;;;;;5048845;28;20437;-64
2021/01/08 07:45:45;;;;;;;13.53;7.10;;;;;;;;;;5056140;28;20438;-64
2021/01/08 07:48:18;;;;;;;11.10;6.37;;;;;;;;;;5037480;28;20470;-65
2021/01/08 07:51:07;;;;;;;12.77;7.60;;;;;;;;;;5048771;28;20426;-65
2021/01/08 07:53:46;;;;;;;13.10;7.27;;;;;;;;;;5027575;28;20929;-64
2021/01/08 07:56:12;;;;;;;15.02;8.10;;;;;;;;;;5035143;28;20433;-63
2021/01/08 07:58:38;;;;;;;14.53;8.00;;;;;;;;;;5049240;28;20210;-64
2021/01/08 08:01:05;;;;;;;17.20;7.60;;;;;;;;;;5045034;28;20421;-64
2021/01/08 08:03:31;;;;;;;11.93;6.97;;;;;;;;;;5043083;28;20427;-64
2021/01/08 08:05:57;;;;;;;13.67;7.80;;;;;;;;;;5038303;28;20413;-64
2021/01/08 08:08:24;;;;;;;11.63;7.50;;;;;;;;;;5037633;28;20513;-64
2021/01/08 08:10:50;;;;;;;16.37;8.47;;;;;;;;;;5039825;28;20411;-64
2021/01/08 08:13:16;;;;;;;16.20;7.37;;;;;;;;;;5044467;28;20418;-64
2021/01/08 08:15:46;;;;;;;14.23;7.23;;;;;;;;;;5059472;28;20403;-64
2021/01/08 08:18:12;;;;;;;15.87;8.57;;;;;;;;;;5056897;28;20454;-64
2021/01/08 08:20:38;;;;;;;15.40;8.90;;;;;;;;;;5059369;28;20407;-64
2021/01/08 08:23:14;;;;;;;27.03;8.63;;;;;;;;;;5055352;28;20391;-64
2021/01/08 08:25:40;;;;;;;16.20;9.40;;;;;;;;;;5019540;28;20398;-64
2021/01/08 08:28:06;;;;;;;12.17;7.80;;;;;;;;;;5024420;28;20950;-64
2021/01/08 08:30:32;;;;;;;14.40;8.47;;;;;;;;;;5057864;28;20458;-64
2021/01/08 08:32:59;;;;;;;15.30;8.50;;;;;;;;;;5058747;28;20419;-64
2021/01/08 08:35:25;;;;;;;15.50;8.60;;;;;;;;;;5057158;28;20430;-64
2021/01/08 08:37:53;;;;;;;14.40;8.13;;;;;;;;;;5038742;28;20944;-65
2021/01/08 08:40:29;;;;;;;16.70;8.47;;;;;;;;;;5036799;28;20436;-65
2021/01/08 08:42:55;;;;;;;16.63;8.63;;;;;;;;;;5038291;28;20412;-64
2021/01/08 08:45:22;;;;;;;17.20;10.37;;;;;;;;;;5040832;28;20431;-64
2021/01/08 08:47:49;;;;;;;16.07;7.87;;;;;;;;;;5035311;28;20998;-64
2021/01/08 08:50:17;;;;;;;17.00;8.40;;;;;;;;;;5035451;28;20488;-64
2021/01/08 08:52:43;;;;;;;13.90;7.87;;;;;;;;;;5036758;28;20484;-66
2021/01/08 08:55:09;;;;;;;14.73;8.20;;;;;;;;;;5032750;28;20765;-66
2021/01/08 08:57:35;;;;;;;16.93;8.10;;;;;;;;;;5030282;28;20452;-66
2021/01/08 09:00:01;;;;;;;16.70;7.70;;;;;;;;;;5032921;28;20441;-66
2021/01/08 09:02:29;;;;;;;12.90;7.70;;;;;;;;;;5033147;28;20475;-66
2021/01/08 09:04:59;;;;;;;15.77;10.50;;;;;;;;;;5031009;28;20445;-66
2021/01/08 09:07:40;;;;;;;12.83;7.97;;;;;;;;;;5033265;28;20463;-66
2021/01/08 09:10:16;;;;;;;13.53;7.00;;;;;;;;;;5031929;28;20455;-66
2021/01/08 09:12:50;;;;;;;13.70;7.70;;;;;;;;;;5031564;28;20472;-65
2021/01/08 09:15:36;;;;;;;11.97;7.10;;;;;;;;;;5030489;28;20430;-66
2021/01/08 09:18:02;;;;;;;14.47;7.27;;;;;;;;;;4989702;28;20424;-66
2021/01/08 09:20:29;;;;;;;10.73;7.00;;;;;;;;;;5032546;28;20774;-67
2021/01/08 09:22:56;;;;;;;13.13;6.77;;;;;;;;;;5029492;28;20423;-66
2021/01/08 09:25:23;;;;;;;14.97;7.93;;;;;;;;;;5032224;28;20921;-65
2021/01/08 09:27:49;;;;;;;11.40;6.87;;;;;;;;;;5032681;28;21031;-67
2021/01/08 09:30:15;;;;;;;11.30;7.07;;;;;;;;;;5032522;28;20462;-65
2021/01/08 09:32:41;;;;;;;10.63;6.77;;;;;;;;;;5032590;28;20901;-67
2021/01/08 09:35:09;;;;;;;15.50;8.43;;;;;;;;;;5031708;28;20506;-67
2021/01/08 09:37:48;;;;;;;12.37;7.50;;;;;;;;;;5032542;28;20479;-66
2021/01/08 09:40:15;;;;;;;12.07;7.43;;;;;;;;;;5041244;28;20951;-67
2021/01/08 09:42:41;;;;;;;12.30;7.53;;;;;;;;;;5033351;28;20401;-67
2021/01/08 09:45:17;;;;;;;12.17;6.47;;;;;;;;;;5032234;28;20432;-68
2021/01/08 09:47:43;;;;;;;9.80;5.70;;;;;;;;;;5022740;28;20443;-66
2021/01/08 09:50:10;;;;;;;11.27;6.30;;;;;;;;;;5039953;28;20859;-67
2021/01/08 09:52:36;;;;;;;11.57;7.10;;;;;;;;;;5053369;28;20411;-65
2021/01/08 09:55:03;;;;;;;11.83;7.30;;;;;;;;;;5041363;28;20434;-66
2021/01/08 09:57:34;;;;;;;13.10;6.57;;;;;;;;;;5033406;28;20425;-66
2021/01/08 10:00:07;;;;;;;11.37;6.60;;;;;;;;;;5029471;28;20469;-66
2021/01/08 10:02:36;;;;;;;15.33;7.73;;;;;;;;;;5031567;28;20442;-65
2021/01/08 10:05:02;;;;;;;10.77;5.77;;;;;;;;;;5033120;28;20435;-65
2021/01/08 10:07:38;;;;;;;9.23;5.60;;;;;;;;;;5033553;28;20443;-66
2021/01/08 10:10:05;;;;;;;10.57;7.20;;;;;;;;;;5038783;28;20545;-65
2021/01/08 10:12:31;;;;;;;18.50;7.30;;;;;;;;;;5046467;28;20503;-65
2021/01/08 10:14:59;;;;;;;11.10;6.70;;;;;;;;;;5037033;28;20454;-66
2021/01/08 10:17:25;;;;;;;11.80;7.10;;;;;;;;;;5053070;28;21021;-65
2021/01/08 10:19:51;;;;;;;10.43;6.77;;;;;;;;;;5050971;28;20430;-66
2021/01/08 10:22:21;;;;;;;16.63;7.60;;;;;;;;;;5049452;28;21055;-65
2021/01/08 10:24:47;;;;;;;9.47;6.97;;;;;;;;;;5050912;28;20425;-66
2021/01/08 10:27:13;;;;;;;9.57;6.90;;;;;;;;;;5034709;28;20433;-66
2021/01/08 10:29:40;;;;;;;8.70;5.87;;;;;;;;;;5033956;28;20546;-66
2021/01/08 10:32:12;;;;;;;14.47;7.60;;;;;;;;;;5033990;28;20436;-66
2021/01/08 10:34:42;;;;;;;9.93;6.50;;;;;;;;;;5035319;28;20828;-67
2021/01/08 10:37:18;;;;;;;10.37;6.20;;;;;;;;;;5034934;28;20515;-65
2021/01/08 10:39:45;;;;;;;10.07;6.70;;;;;;;;;;5032646;28;20401;-66
2021/01/08 10:42:11;;;;;;;10.13;6.43;;;;;;;;;;5040552;28;20896;-66
2021/01/08 10:44:38;;;;;;;14.40;8.30;;;;;;;;;;5042464;28;20443;-68
2021/01/08 10:47:04;;;;;;;9.20;5.47;;;;;;;;;;5045283;28;20427;-67
2021/01/08 10:49:30;;;;;;;11.07;5.70;;;;;;;;;;5041144;28;20454;-65
2021/01/08 10:51:56;;;;;;;9.93;5.97;;;;;;;;;;5037861;28;20443;-65
2021/01/08 10:54:22;;;;;;;9.37;6.43;;;;;;;;;;5035176;28;20433;-67
2021/01/08 10:56:48;;;;;;;9.87;5.60;;;;;;;;;;5037914;28;20545;-66
2021/01/08 10:59:15;;;;;;;7.17;5.07;;;;;;;;;;5034714;28;20408;-65
2021/01/08 11:01:42;;;;;;;8.43;6.50;;;;;;;;;;5033796;28;20449;-64
2021/01/08 11:04:08;;;;;;;10.83;6.27;;;;;;;;;;5037078;28;20465;-63
2021/01/08 11:06:35;;;;;;;10.93;6.13;;;;;;;;;;5051774;28;20530;-66
2021/01/08 11:09:01;;;;;;;12.93;7.27;;;;;;;;;;5058614;28;20789;-65
2021/01/08 11:11:27;;;;;;;11.13;6.63;;;;;;;;;;5056525;28;20427;-65
2021/01/08 11:13:53;;;;;;;8.57;6.63;;;;;;;;;;5056747;28;20474;-65
2021/01/08 11:16:19;;;;;;;12.13;6.63;;;;;;;;;;5054957;28;20544;-65
2021/01/08 11:18:46;;;;;;;11.73;7.00;;;;;;;;;;5056673;28;20427;-65
2021/01/08 11:21:17;;;;;;;9.03;5.20;;;;;;;;;;5054284;28;20444;-66
2021/01/08 11:23:43;;;;;;;9.47;6.90;;;;;;;;;;5056548;28;20497;-67
2021/01/08 11:26:09;;;;;;;11.40;6.33;;;;;;;;;;5054571;28;20462;-64
2021/01/08 11:28:35;;;;;;;13.87;6.57;;;;;;;;;;5047427;28;20475;-64
2021/01/08 11:31:01;;;;;;;11.13;6.47;;;;;;;;;;5035595;28;20979;-65
2021/01/08 11:33:27;;;;;;;12.10;7.20;;;;;;;;;;5036377;28;20450;-67
2021/01/08 11:35:53;;;;;;;11.52;6.55;;;;;;;;;;5028612;28;20464;-67
2021/01/08 11:38:20;;;;;;;9.20;5.30;;;;;;;;;;5029912;28;20235;-66
2021/01/08 11:40:46;;;;;;;13.20;5.60;;;;;;;;;;5033699;28;20417;-65
2021/01/08 11:43:12;;;;;;;10.80;5.93;;;;;;;;;;5034109;28;20478;-65
2021/01/08 11:45:38;;;;;;;11.03;5.90;;;;;;;;;;5033234;28;20469;-66
2021/01/08 11:48:04;;;;;;;7.77;5.40;;;;;;;;;;5038331;28;20441;-69
2021/01/08 11:50:30;;;;;;;9.40;4.90;;;;;;;;;;5035644;28;20854;-68
2021/01/08 11:52:56;;;;;;;8.63;5.43;;;;;;;;;;5037981;28;20462;-67
2021/01/08 11:55:22;;;;;;;7.40;4.77;;;;;;;;;;5036160;28;20412;-67
2021/01/08 11:57:48;;;;;;;9.30;6.17;;;;;;;;;;5042407;28;20447;-67
2021/01/08 12:00:14;;;;;;;12.07;6.40;;;;;;;;;;5034581;28;20423;-67
2021/01/08 12:02:40;;;;;;;9.27;5.87;;;;;;;;;;5033326;28;20508;-67
2021/01/08 12:05:06;;;;;;;6.50;5.03;;;;;;;;;;5034536;28;20421;-67
2021/01/08 12:07:33;;;;;;;10.60;6.30;;;;;;;;;;5035351;28;20447;-67
2021/01/08 12:09:59;;;;;;;8.00;5.80;;;;;;;;;;5034168;28;20458;-68
2021/01/08 12:12:25;;;;;;;9.40;4.90;;;;;;;;;;5033650;28;20444;-67
2021/01/08 12:14:51;;;;;;;8.60;6.47;;;;;;;;;;5033554;28;20427;-64
2021/01/08 12:17:17;;;;;;;11.40;5.83;;;;;;;;;;5039238;28;20444;-64
2021/01/08 12:19:43;;;;;;;7.93;5.20;;;;;;;;;;5034792;28;20565;-65
2021/01/08 12:22:10;;;;;;;10.63;6.37;;;;;;;;;;5029294;28;20426;-65
2021/01/08 12:24:37;;;;;;;10.97;5.80;;;;;;;;;;5027112;28;20515;-64
2021/01/08 12:27:03;;;;;;;10.50;6.40;;;;;;;;;;5029148;28;20448;-65
2021/01/08 12:29:30;;;;;;;9.17;5.63;;;;;;;;;;5034213;28;20485;-65
2021/01/08 12:32:00;;;;;;;10.27;5.97;;;;;;;;;;5033427;28;20429;-64
2021/01/08 12:34:26;;;;;;;8.60;4.40;;;;;;;;;;5028940;28;20488;-66
2021/01/08 12:36:52;;;;;;;8.43;5.10;;;;;;;;;;5032819;28;20511;-65
2021/01/08 12:39:19;;;;;;;8.80;5.77;;;;;;;;;;5028743;28;20435;-66
2021/01/08 12:41:45;;;;;;;11.70;6.67;;;;;;;;;;5031482;28;20426;-67
2021/01/08 12:44:11;;;;;;;8.57;5.40;;;;;;;;;;5029648;28;20480;-66
2021/01/08 12:46:37;;;;;;;13.77;7.25;;;;;;;;;;5032035;28;20480;-68
2021/01/08 12:49:05;;;;;;;9.50;5.43;;;;;;;;;;5033677;28;20190;-66
2021/01/08 12:51:31;;;;;;;10.47;5.83;;;;;;;;;;5033549;28;20392;-68
2021/01/08 12:53:57;;;;;;;10.95;6.80;;;;;;;;;;5053645;28;20406;-64
2021/01/08 12:56:31;;;;;;;8.77;4.90;;;;;;;;;;5051587;28;20169;-68
2021/01/08 12:58:57;;;;;;;9.47;5.07;;;;;;;;;;5034908;28;20397;-68
2021/01/08 13:01:23;;;;;;;10.23;5.50;;;;;;;;;;5029389;28;20525;-67
2021/01/08 13:03:49;;;;;;;12.20;6.88;;;;;;;;;;5034907;28;20432;-67
2021/01/08 13:06:25;;;;;;;8.20;5.33;;;;;;;;;;5032481;28;20191;-67
2021/01/08 13:08:52;;;;;;;9.60;5.87;;;;;;;;;;5063363;22;20497;-68
2021/01/08 13:11:18;;;;;;;8.73;6.03;;;;;;;;;;5033864;28;20421;-70
2021/01/08 13:13:44;;;;;;;8.37;5.40;;;;;;;;;;5051248;28;20311;-68
2021/01/08 13:16:10;;;;;;;12.73;5.97;;;;;;;;;;5034308;28;20760;-69
2021/01/08 13:18:36;;;;;;;8.77;4.97;;;;;;;;;;5045409;28;20436;-68
2021/01/08 13:21:02;;;;;;;10.82;5.95;;;;;;;;;;5029145;28;20781;-70
2021/01/08 13:23:28;;;;;;;8.77;5.20;;;;;;;;;;5027317;28;20166;-67
2021/01/08 13:25:55;;;;;;;7.20;4.13;;;;;;;;;;5033384;28;20402;-69
2021/01/08 13:28:21;;;;;;;8.10;4.80;;;;;;;;;;5037279;28;20437;-72
2021/01/08 13:30:47;;;;;;;14.53;6.30;;;;;;;;;;5048399;28;20543;-72
2021/01/08 13:33:14;;;;;;;8.20;5.30;;;;;;;;;;5045817;28;20427;-72
2021/01/08 13:35:40;;;;;;;8.10;4.47;;;;;;;;;;5052329;28;20411;-72
2021/01/08 13:38:06;;;;;;;10.13;5.30;;;;;;;;;;5042765;28;20459;-74
2021/01/08 13:40:32;;;;;;;7.07;5.50;;;;;;;;;;5033480;28;20412;-72
2021/01/08 13:42:58;;;;;;;7.17;5.30;;;;;;;;;;5038122;28;20423;-73
2021/01/08 13:45:24;;;;;;;5.77;4.30;;;;;;;;;;5053468;28;20408;-73
2021/01/08 13:47:50;;;;;;;7.03;4.37;;;;;;;;;;5051960;28;20851;-73
2021/01/08 13:50:16;;;;;;;11.00;5.17;;;;;;;;;;5053087;28;20619;-73
2021/01/08 13:52:42;;;;;;;5.37;4.00;;;;;;;;;;5048241;28;20449;-73
2021/01/08 13:55:08;;;;;;;8.97;4.87;;;;;;;;;;5032716;28;20436;-73
2021/01/08 13:57:34;;;;;;;11.67;5.63;;;;;;;;;;5032782;28;20448;-73
2021/01/08 14:00:01;;;;;;;7.60;4.90;;;;;;;;;;5032625;28;20438;-73
2021/01/08 14:02:27;;;;;;;8.13;5.27;;;;;;;;;;5031944;28;20412;-72
2021/01/08 14:04:56;;;;;;;8.00;4.97;;;;;;;;;;5030688;28;20982;-73
2021/01/08 14:07:21;;;;;;;9.03;4.93;;;;;;;;;;5030687;28;20424;-73
2021/01/08 14:09:48;;;;;;;7.40;4.77;;;;;;;;;;5032124;28;20469;-73
2021/01/08 14:12:14;;;;;;;7.50;4.83;;;;;;;;;;5032309;28;20453;-73
2021/01/08 14:14:40;;;;;;;9.20;6.40;;;;;;;;;;5031919;28;20897;-73
2021/01/08 14:17:06;;;;;;;8.90;5.60;;;;;;;;;;5031852;28;20572;-73
2021/01/08 14:19:32;;;;;;;7.53;4.87;;;;;;;;;;5032131;28;20569;-73
2021/01/08 14:21:58;;;;;;;6.00;3.70;;;;;;;;;;5029133;28;20430;-73
2021/01/08 14:24:24;;;;;;;8.73;5.00;;;;;;;;;;5032041;28;20459;-73
2021/01/08 14:26:54;;;;;;;8.27;5.13;;;;;;;;;;5032973;28;20448;-73
2021/01/08 14:29:20;;;;;;;7.67;4.87;;;;;;;;;;5048377;28;20481;-73
2021/01/08 14:31:46;;;;;;;8.47;4.97;;;;;;;;;;5052796;28;20412;-73